Hlavní strana
METAR-TAF:

METAR-TAF

Letiště :

McGhee Tyson Airport

Knoxville, Tennessee, Spojené státy americké

zeměpisná šířka: 35-49-05N, zeměpisná délka: 083-59-09W, výška: 299 m

Aktuální stav počasí

Zpráva byla vytvořena před 53 minutami, v 03:53 UTC
Severní vítr 4 kt
Teplota 0°C
Vlhkost vzduchu 59%
Tlak 1032 hPa
Viditelnost: 16.1 km
Jasno

METAR: KTYS 220353Z 35004KT 10SM CLR 00/M07 A3048 RMK AO2 SLP328 T00001067 $

Čas: 23:46 (04:46 UTC)

Předpověď počasí

Zpráva byla vytvořena před 5 hodinami a 26 minutami, v 23:20 UTC
Předpověď platná od 22 v 00 UTC do 22 v 24 UTC
Severovýchodní vítr 6 kt
Viditelnost: 10 km
Jasno
Od 22 v 0200 UTC
Severní vítr kt
Viditelnost: 10 km
Jasno
Od 22 v 1700 UTC
Západojihozápadní vítr 6 kt
Viditelnost: 10 km
Jasno

TAF: KTYS 212320Z 2200/2224 04006KT P6SM SKC FM220200 00000KT P6SM SKC FM221700 24006KT P6SM SKC

Stav a předpovědi počasí z více než 4 000 letišť (zprávy METAR a TAF).

Červené a žluté tečky na mapě představují dostupné meteorologické stanice.

Když kurzor umístíte na tečku, zobrazí se název stanice.

Pak kliknutím zobrazíte stav a předpověď počasí.

Chcete-li změnit mapu, kliknutím na zelené tlačítko se znaménkem +mapu přiblížíte, kliknutím na zelené tlačítko se znaménkem – mapu oddálíte a kliknutím na zelené šipky přejdete na sousední mapy.


METAR-TAF: